sensor_id;sensor_type;location;lat;lon;timestamp;temperature;humidity
25512;DHT22;13414;44.534;18.700;2023-09-08T00:00:09;15.50;99.90
25512;DHT22;13414;44.534;18.700;2023-09-08T00:02:37;15.50;99.90
25512;DHT22;13414;44.534;18.700;2023-09-08T00:05:04;15.50;99.90
25512;DHT22;13414;44.534;18.700;2023-09-08T00:07:34;15.50;99.90
25512;DHT22;13414;44.534;18.700;2023-09-08T00:10:02;15.50;99.90
25512;DHT22;13414;44.534;18.700;2023-09-08T00:12:29;15.40;99.90
25512;DHT22;13414;44.534;18.700;2023-09-08T00:14:58;15.30;99.90
25512;DHT22;13414;44.534;18.700;2023-09-08T00:17:26;15.30;99.90
25512;DHT22;13414;44.534;18.700;2023-09-08T00:19:53;15.30;99.90
25512;DHT22;13414;44.534;18.700;2023-09-08T00:22:21;15.30;99.90
25512;DHT22;13414;44.534;18.700;2023-09-08T00:24:50;15.30;99.90
25512;DHT22;13414;44.534;18.700;2023-09-08T00:27:17;15.20;99.90
25512;DHT22;13414;44.534;18.700;2023-09-08T00:29:45;15.00;99.90
25512;DHT22;13414;44.534;18.700;2023-09-08T00:32:12;15.00;99.90
25512;DHT22;13414;44.534;18.700;2023-09-08T00:34:41;15.00;99.90
25512;DHT22;13414;44.534;18.700;2023-09-08T00:37:08;15.00;99.90
25512;DHT22;13414;44.534;18.700;2023-09-08T00:39:37;15.10;99.90
25512;DHT22;13414;44.534;18.700;2023-09-08T00:42:06;15.00;99.90
25512;DHT22;13414;44.534;18.700;2023-09-08T00:44:34;14.90;99.90
25512;DHT22;13414;44.534;18.700;2023-09-08T00:47:02;14.80;99.90
25512;DHT22;13414;44.534;18.700;2023-09-08T00:49:29;14.80;99.90
25512;DHT22;13414;44.534;18.700;2023-09-08T00:51:57;14.90;99.90
25512;DHT22;13414;44.534;18.700;2023-09-08T00:54:26;14.80;99.90
25512;DHT22;13414;44.534;18.700;2023-09-08T00:56:55;14.90;99.90
25512;DHT22;13414;44.534;18.700;2023-09-08T00:59:25;15.00;99.90
25512;DHT22;13414;44.534;18.700;2023-09-08T01:01:53;14.90;99.90
25512;DHT22;13414;44.534;18.700;2023-09-08T01:04:21;14.80;99.90
25512;DHT22;13414;44.534;18.700;2023-09-08T01:06:49;14.80;99.90
25512;DHT22;13414;44.534;18.700;2023-09-08T01:09:17;14.80;99.90
25512;DHT22;13414;44.534;18.700;2023-09-08T01:12:16;14.80;99.90
25512;DHT22;13414;44.534;18.700;2023-09-08T01:14:46;14.80;99.90
25512;DHT22;13414;44.534;18.700;2023-09-08T01:17:14;14.70;99.90
25512;DHT22;13414;44.534;18.700;2023-09-08T01:19:43;14.70;99.90
25512;DHT22;13414;44.534;18.700;2023-09-08T01:25:24;14.60;99.90
25512;DHT22;13414;44.534;18.700;2023-09-08T01:27:53;14.60;99.90
25512;DHT22;13414;44.534;18.700;2023-09-08T01:30:23;14.50;99.90
25512;DHT22;13414;44.534;18.700;2023-09-08T01:32:52;14.60;99.90
25512;DHT22;13414;44.534;18.700;2023-09-08T01:35:21;14.60;99.90
25512;DHT22;13414;44.534;18.700;2023-09-08T01:37:49;14.70;99.90
25512;DHT22;13414;44.534;18.700;2023-09-08T01:40:16;14.50;99.90
25512;DHT22;13414;44.534;18.700;2023-09-08T01:42:47;14.50;99.90
25512;DHT22;13414;44.534;18.700;2023-09-08T01:45:15;14.50;99.90
25512;DHT22;13414;44.534;18.700;2023-09-08T01:47:42;14.40;99.90
25512;DHT22;13414;44.534;18.700;2023-09-08T01:50:10;14.40;99.90
25512;DHT22;13414;44.534;18.700;2023-09-08T01:52:37;14.40;99.90
25512;DHT22;13414;44.534;18.700;2023-09-08T01:55:05;14.40;99.90
25512;DHT22;13414;44.534;18.700;2023-09-08T01:57:34;14.30;99.90
25512;DHT22;13414;44.534;18.700;2023-09-08T02:00:05;14.30;99.90
25512;DHT22;13414;44.534;18.700;2023-09-08T02:02:38;14.20;99.90
25512;DHT22;13414;44.534;18.700;2023-09-08T02:05:07;14.40;99.90
25512;DHT22;13414;44.534;18.700;2023-09-08T02:07:35;14.30;99.90
25512;DHT22;13414;44.534;18.700;2023-09-08T02:10:02;14.20;99.90
25512;DHT22;13414;44.534;18.700;2023-09-08T02:12:30;14.20;99.90
25512;DHT22;13414;44.534;18.700;2023-09-08T02:14:57;14.20;99.90
25512;DHT22;13414;44.534;18.700;2023-09-08T02:17:27;14.20;99.90
25512;DHT22;13414;44.534;18.700;2023-09-08T02:19:55;14.20;99.90
25512;DHT22;13414;44.534;18.700;2023-09-08T02:22:23;14.20;99.90
25512;DHT22;13414;44.534;18.700;2023-09-08T02:24:51;14.20;99.90
25512;DHT22;13414;44.534;18.700;2023-09-08T02:27:19;14.10;99.90
25512;DHT22;13414;44.534;18.700;2023-09-08T02:29:50;14.20;99.90
25512;DHT22;13414;44.534;18.700;2023-09-08T02:32:17;14.20;99.90
25512;DHT22;13414;44.534;18.700;2023-09-08T02:34:48;14.10;99.90
25512;DHT22;13414;44.534;18.700;2023-09-08T02:37:16;14.00;99.90
25512;DHT22;13414;44.534;18.700;2023-09-08T02:39:45;13.90;99.90
25512;DHT22;13414;44.534;18.700;2023-09-08T02:42:12;13.90;99.90
25512;DHT22;13414;44.534;18.700;2023-09-08T02:44:40;13.90;99.90
25512;DHT22;13414;44.534;18.700;2023-09-08T02:47:07;13.80;99.90
25512;DHT22;13414;44.534;18.700;2023-09-08T02:49:37;13.80;99.90
25512;DHT22;13414;44.534;18.700;2023-09-08T02:52:06;13.80;99.90
25512;DHT22;13414;44.534;18.700;2023-09-08T02:54:34;14.00;99.90
25512;DHT22;13414;44.534;18.700;2023-09-08T02:57:02;13.90;99.90
25512;DHT22;13414;44.534;18.700;2023-09-08T02:59:30;13.80;99.90
25512;DHT22;13414;44.534;18.700;2023-09-08T03:01:58;13.80;99.90
25512;DHT22;13414;44.534;18.700;2023-09-08T03:04:26;13.80;99.90
25512;DHT22;13414;44.534;18.700;2023-09-08T03:06:53;13.70;99.90
25512;DHT22;13414;44.534;18.700;2023-09-08T03:09:22;13.70;99.90
25512;DHT22;13414;44.534;18.700;2023-09-08T03:11:50;13.60;99.90
25512;DHT22;13414;44.534;18.700;2023-09-08T03:14:18;13.60;99.90
25512;DHT22;13414;44.534;18.700;2023-09-08T03:16:45;13.50;99.90
25512;DHT22;13414;44.534;18.700;2023-09-08T03:19:13;13.50;99.90
25512;DHT22;13414;44.534;18.700;2023-09-08T03:21:40;13.50;99.90
25512;DHT22;13414;44.534;18.700;2023-09-08T03:24:08;13.60;99.90
25512;DHT22;13414;44.534;18.700;2023-09-08T03:26:37;13.60;99.90
25512;DHT22;13414;44.534;18.700;2023-09-08T03:29:06;13.60;99.90
25512;DHT22;13414;44.534;18.700;2023-09-08T03:31:33;13.60;99.90
25512;DHT22;13414;44.534;18.700;2023-09-08T03:34:01;13.60;99.90
25512;DHT22;13414;44.534;18.700;2023-09-08T03:36:28;13.50;99.90
25512;DHT22;13414;44.534;18.700;2023-09-08T03:38:57;13.50;99.90
25512;DHT22;13414;44.534;18.700;2023-09-08T03:41:25;13.50;99.90
25512;DHT22;13414;44.534;18.700;2023-09-08T03:43:54;13.60;99.90
25512;DHT22;13414;44.534;18.700;2023-09-08T03:46:22;13.50;99.90
25512;DHT22;13414;44.534;18.700;2023-09-08T03:48:51;13.50;99.90
25512;DHT22;13414;44.534;18.700;2023-09-08T03:51:20;13.40;99.90
25512;DHT22;13414;44.534;18.700;2023-09-08T03:53:48;13.40;99.90
25512;DHT22;13414;44.534;18.700;2023-09-08T03:56:15;13.50;99.90
25512;DHT22;13414;44.534;18.700;2023-09-08T03:58:43;13.40;99.90
25512;DHT22;13414;44.534;18.700;2023-09-08T04:01:12;13.40;99.90
25512;DHT22;13414;44.534;18.700;2023-09-08T04:03:39;13.30;99.90
25512;DHT22;13414;44.534;18.700;2023-09-08T04:06:07;13.30;99.90
25512;DHT22;13414;44.534;18.700;2023-09-08T04:08:35;13.20;99.90
25512;DHT22;13414;44.534;18.700;2023-09-08T04:11:02;13.30;99.90
25512;DHT22;13414;44.534;18.700;2023-09-08T04:13:30;13.20;99.90
25512;DHT22;13414;44.534;18.700;2023-09-08T04:15:57;13.30;99.90
25512;DHT22;13414;44.534;18.700;2023-09-08T04:18:26;13.30;99.90
25512;DHT22;13414;44.534;18.700;2023-09-08T04:20:54;13.30;99.90
25512;DHT22;13414;44.534;18.700;2023-09-08T04:23:21;13.30;99.90
25512;DHT22;13414;44.534;18.700;2023-09-08T04:25:49;13.20;99.90
25512;DHT22;13414;44.534;18.700;2023-09-08T04:28:17;13.30;99.90
25512;DHT22;13414;44.534;18.700;2023-09-08T04:30:44;13.20;99.90
25512;DHT22;13414;44.534;18.700;2023-09-08T04:33:12;13.20;99.90
25512;DHT22;13414;44.534;18.700;2023-09-08T04:35:41;13.20;99.90
25512;DHT22;13414;44.534;18.700;2023-09-08T04:38:08;13.30;99.90
25512;DHT22;13414;44.534;18.700;2023-09-08T04:40:36;13.40;99.90
25512;DHT22;13414;44.534;18.700;2023-09-08T04:43:04;13.50;99.90
25512;DHT22;13414;44.534;18.700;2023-09-08T04:45:32;13.50;99.90
25512;DHT22;13414;44.534;18.700;2023-09-08T04:48:00;13.40;99.90
25512;DHT22;13414;44.534;18.700;2023-09-08T04:50:29;13.40;99.90
25512;DHT22;13414;44.534;18.700;2023-09-08T04:52:58;13.50;99.90
25512;DHT22;13414;44.534;18.700;2023-09-08T04:55:26;13.50;99.90
25512;DHT22;13414;44.534;18.700;2023-09-08T04:57:53;13.50;99.90
25512;DHT22;13414;44.534;18.700;2023-09-08T05:00:21;13.50;99.90
25512;DHT22;13414;44.534;18.700;2023-09-08T05:02:48;13.60;99.90
25512;DHT22;13414;44.534;18.700;2023-09-08T05:05:15;13.60;99.90
25512;DHT22;13414;44.534;18.700;2023-09-08T05:07:43;13.80;99.90
25512;DHT22;13414;44.534;18.700;2023-09-08T05:10:13;13.80;99.90
25512;DHT22;13414;44.534;18.700;2023-09-08T05:12:41;13.80;99.90
25512;DHT22;13414;44.534;18.700;2023-09-08T05:15:09;13.90;99.90
25512;DHT22;13414;44.534;18.700;2023-09-08T05:17:44;14.00;99.90
25512;DHT22;13414;44.534;18.700;2023-09-08T05:20:12;14.10;99.90
25512;DHT22;13414;44.534;18.700;2023-09-08T05:22:41;14.20;99.90
25512;DHT22;13414;44.534;18.700;2023-09-08T05:25:09;14.30;99.90
25512;DHT22;13414;44.534;18.700;2023-09-08T05:27:38;14.40;99.90
25512;DHT22;13414;44.534;18.700;2023-09-08T05:30:07;14.50;99.90
25512;DHT22;13414;44.534;18.700;2023-09-08T05:32:36;14.60;99.90
25512;DHT22;13414;44.534;18.700;2023-09-08T05:35:04;14.80;99.90
25512;DHT22;13414;44.534;18.700;2023-09-08T05:37:32;14.90;99.90
25512;DHT22;13414;44.534;18.700;2023-09-08T05:40:00;15.10;99.90
25512;DHT22;13414;44.534;18.700;2023-09-08T05:42:29;15.30;99.90
25512;DHT22;13414;44.534;18.700;2023-09-08T05:44:58;15.50;99.90
25512;DHT22;13414;44.534;18.700;2023-09-08T05:47:26;15.70;99.90
25512;DHT22;13414;44.534;18.700;2023-09-08T05:49:55;16.00;99.90
25512;DHT22;13414;44.534;18.700;2023-09-08T05:52:24;16.30;99.90
25512;DHT22;13414;44.534;18.700;2023-09-08T05:54:54;16.50;99.90
25512;DHT22;13414;44.534;18.700;2023-09-08T05:57:21;16.80;99.90
25512;DHT22;13414;44.534;18.700;2023-09-08T05:59:49;17.10;99.90
25512;DHT22;13414;44.534;18.700;2023-09-08T06:02:18;17.30;99.90
25512;DHT22;13414;44.534;18.700;2023-09-08T06:04:45;17.50;99.90
25512;DHT22;13414;44.534;18.700;2023-09-08T06:07:13;17.70;99.90
25512;DHT22;13414;44.534;18.700;2023-09-08T06:09:43;17.80;99.90
25512;DHT22;13414;44.534;18.700;2023-09-08T06:12:11;18.00;99.90
25512;DHT22;13414;44.534;18.700;2023-09-08T06:14:39;18.20;99.90
25512;DHT22;13414;44.534;18.700;2023-09-08T06:17:06;18.50;99.90
25512;DHT22;13414;44.534;18.700;2023-09-08T06:19:35;18.60;99.90
25512;DHT22;13414;44.534;18.700;2023-09-08T06:22:03;18.70;99.90
25512;DHT22;13414;44.534;18.700;2023-09-08T06:24:31;18.80;99.90
25512;DHT22;13414;44.534;18.700;2023-09-08T06:26:59;18.90;99.90
25512;DHT22;13414;44.534;18.700;2023-09-08T06:29:28;19.00;99.90
25512;DHT22;13414;44.534;18.700;2023-09-08T06:31:56;19.10;99.90
25512;DHT22;13414;44.534;18.700;2023-09-08T06:34:23;19.30;99.90
25512;DHT22;13414;44.534;18.700;2023-09-08T06:36:53;19.50;99.90
25512;DHT22;13414;44.534;18.700;2023-09-08T06:39:25;19.70;99.90
25512;DHT22;13414;44.534;18.700;2023-09-08T06:41:52;19.90;99.90
25512;DHT22;13414;44.534;18.700;2023-09-08T06:44:21;20.20;99.90
25512;DHT22;13414;44.534;18.700;2023-09-08T06:46:49;20.30;99.90
25512;DHT22;13414;44.534;18.700;2023-09-08T06:49:17;20.50;99.90
25512;DHT22;13414;44.534;18.700;2023-09-08T06:51:45;20.60;99.90
25512;DHT22;13414;44.534;18.700;2023-09-08T06:54:16;20.70;99.90
25512;DHT22;13414;44.534;18.700;2023-09-08T06:56:45;20.80;99.90
25512;DHT22;13414;44.534;18.700;2023-09-08T06:59:14;20.90;99.90
25512;DHT22;13414;44.534;18.700;2023-09-08T07:01:41;21.10;99.90
25512;DHT22;13414;44.534;18.700;2023-09-08T07:04:09;21.30;99.90
25512;DHT22;13414;44.534;18.700;2023-09-08T07:06:37;21.40;99.90
25512;DHT22;13414;44.534;18.700;2023-09-08T07:09:08;21.60;99.90
25512;DHT22;13414;44.534;18.700;2023-09-08T07:11:37;21.60;99.90
25512;DHT22;13414;44.534;18.700;2023-09-08T07:14:05;21.70;99.90
25512;DHT22;13414;44.534;18.700;2023-09-08T07:16:32;21.70;99.90
25512;DHT22;13414;44.534;18.700;2023-09-08T07:19:02;21.80;99.90
25512;DHT22;13414;44.534;18.700;2023-09-08T07:21:29;21.90;99.90
25512;DHT22;13414;44.534;18.700;2023-09-08T07:23:57;22.00;99.90
25512;DHT22;13414;44.534;18.700;2023-09-08T07:26:26;22.20;99.90
25512;DHT22;13414;44.534;18.700;2023-09-08T07:28:55;22.20;99.90
25512;DHT22;13414;44.534;18.700;2023-09-08T07:31:23;22.30;99.90
25512;DHT22;13414;44.534;18.700;2023-09-08T07:33:51;22.30;99.90
25512;DHT22;13414;44.534;18.700;2023-09-08T07:36:19;22.50;99.90
25512;DHT22;13414;44.534;18.700;2023-09-08T07:38:47;22.50;99.90
25512;DHT22;13414;44.534;18.700;2023-09-08T07:41:15;22.60;99.90
25512;DHT22;13414;44.534;18.700;2023-09-08T07:43:42;22.70;99.90
25512;DHT22;13414;44.534;18.700;2023-09-08T07:46:14;22.80;99.90
25512;DHT22;13414;44.534;18.700;2023-09-08T07:48:43;23.10;99.90
25512;DHT22;13414;44.534;18.700;2023-09-08T07:51:11;23.20;99.90
25512;DHT22;13414;44.534;18.700;2023-09-08T07:53:39;23.30;99.90
25512;DHT22;13414;44.534;18.700;2023-09-08T07:56:06;23.40;99.90
25512;DHT22;13414;44.534;18.700;2023-09-08T07:58:35;23.40;99.90
25512;DHT22;13414;44.534;18.700;2023-09-08T08:01:04;23.40;99.90
25512;DHT22;13414;44.534;18.700;2023-09-08T08:03:34;23.50;99.90
25512;DHT22;13414;44.534;18.700;2023-09-08T08:06:02;23.50;99.90
25512;DHT22;13414;44.534;18.700;2023-09-08T08:08:29;23.60;99.90
25512;DHT22;13414;44.534;18.700;2023-09-08T08:10:57;23.70;99.90
25512;DHT22;13414;44.534;18.700;2023-09-08T08:13:26;23.90;99.90
25512;DHT22;13414;44.534;18.700;2023-09-08T08:15:53;23.90;99.90
25512;DHT22;13414;44.534;18.700;2023-09-08T08:18:21;24.00;99.90
25512;DHT22;13414;44.534;18.700;2023-09-08T08:20:50;24.10;99.90
25512;DHT22;13414;44.534;18.700;2023-09-08T08:23:17;24.20;99.90
25512;DHT22;13414;44.534;18.700;2023-09-08T08:25:46;24.30;99.90
25512;DHT22;13414;44.534;18.700;2023-09-08T08:28:13;24.40;99.90
25512;DHT22;13414;44.534;18.700;2023-09-08T08:30:41;24.50;99.90
25512;DHT22;13414;44.534;18.700;2023-09-08T08:33:09;24.50;99.90
25512;DHT22;13414;44.534;18.700;2023-09-08T08:35:37;24.60;99.90
25512;DHT22;13414;44.534;18.700;2023-09-08T08:38:06;24.80;99.90
25512;DHT22;13414;44.534;18.700;2023-09-08T08:40:38;24.70;99.90
25512;DHT22;13414;44.534;18.700;2023-09-08T08:43:05;24.80;99.90
25512;DHT22;13414;44.534;18.700;2023-09-08T08:45:34;24.90;99.90
25512;DHT22;13414;44.534;18.700;2023-09-08T08:48:04;25.00;99.90
25512;DHT22;13414;44.534;18.700;2023-09-08T08:50:32;25.00;99.90
25512;DHT22;13414;44.534;18.700;2023-09-08T08:53:02;25.10;99.90
25512;DHT22;13414;44.534;18.700;2023-09-08T08:55:32;25.10;99.90
25512;DHT22;13414;44.534;18.700;2023-09-08T08:58:03;25.10;99.90
25512;DHT22;13414;44.534;18.700;2023-09-08T09:00:34;25.10;99.90
25512;DHT22;13414;44.534;18.700;2023-09-08T09:03:05;25.00;99.90
25512;DHT22;13414;44.534;18.700;2023-09-08T09:05:34;25.20;99.90
25512;DHT22;13414;44.534;18.700;2023-09-08T09:08:17;25.30;99.90
25512;DHT22;13414;44.534;18.700;2023-09-08T09:10:46;25.10;99.90
25512;DHT22;13414;44.534;18.700;2023-09-08T09:13:14;25.10;99.90
25512;DHT22;13414;44.534;18.700;2023-09-08T09:15:43;25.50;99.90
25512;DHT22;13414;44.534;18.700;2023-09-08T09:18:11;25.70;99.90
25512;DHT22;13414;44.534;18.700;2023-09-08T09:20:38;25.90;99.90
25512;DHT22;13414;44.534;18.700;2023-09-08T09:23:07;26.10;99.90
25512;DHT22;13414;44.534;18.700;2023-09-08T09:26:01;26.20;99.90
25512;DHT22;13414;44.534;18.700;2023-09-08T09:28:32;26.30;99.90
25512;DHT22;13414;44.534;18.700;2023-09-08T09:30:59;26.30;99.90
25512;DHT22;13414;44.534;18.700;2023-09-08T09:33:28;26.40;99.90
25512;DHT22;13414;44.534;18.700;2023-09-08T09:35:58;26.50;99.90
25512;DHT22;13414;44.534;18.700;2023-09-08T09:38:30;26.50;99.90
25512;DHT22;13414;44.534;18.700;2023-09-08T09:40:59;26.30;99.90
25512;DHT22;13414;44.534;18.700;2023-09-08T09:43:28;26.30;99.90
25512;DHT22;13414;44.534;18.700;2023-09-08T09:45:56;26.40;99.90
25512;DHT22;13414;44.534;18.700;2023-09-08T09:48:24;26.50;99.90
25512;DHT22;13414;44.534;18.700;2023-09-08T09:50:52;26.80;99.90
25512;DHT22;13414;44.534;18.700;2023-09-08T09:53:20;26.80;99.90
25512;DHT22;13414;44.534;18.700;2023-09-08T09:55:48;26.80;99.90
25512;DHT22;13414;44.534;18.700;2023-09-08T09:58:19;26.80;99.90
25512;DHT22;13414;44.534;18.700;2023-09-08T10:00:48;26.70;99.90
25512;DHT22;13414;44.534;18.700;2023-09-08T10:03:18;26.70;99.90
25512;DHT22;13414;44.534;18.700;2023-09-08T10:05:47;26.90;99.90
25512;DHT22;13414;44.534;18.700;2023-09-08T10:08:16;26.90;99.90
25512;DHT22;13414;44.534;18.700;2023-09-08T10:10:45;27.10;99.90
25512;DHT22;13414;44.534;18.700;2023-09-08T10:13:14;27.00;99.90
25512;DHT22;13414;44.534;18.700;2023-09-08T10:15:50;27.20;99.90
25512;DHT22;13414;44.534;18.700;2023-09-08T10:18:19;27.20;99.90
25512;DHT22;13414;44.534;18.700;2023-09-08T10:20:48;27.20;99.90
25512;DHT22;13414;44.534;18.700;2023-09-08T10:23:22;27.10;99.90
25512;DHT22;13414;44.534;18.700;2023-09-08T10:25:53;27.00;99.90
25512;DHT22;13414;44.534;18.700;2023-09-08T10:28:34;27.00;99.90
25512;DHT22;13414;44.534;18.700;2023-09-08T10:31:05;27.10;99.90
25512;DHT22;13414;44.534;18.700;2023-09-08T10:33:33;27.10;99.90
25512;DHT22;13414;44.534;18.700;2023-09-08T10:36:04;27.20;99.90
25512;DHT22;13414;44.534;18.700;2023-09-08T10:38:34;27.30;99.90
25512;DHT22;13414;44.534;18.700;2023-09-08T10:41:26;27.40;99.90
25512;DHT22;13414;44.534;18.700;2023-09-08T10:43:56;27.60;99.90
25512;DHT22;13414;44.534;18.700;2023-09-08T10:46:28;27.50;99.90
25512;DHT22;13414;44.534;18.700;2023-09-08T10:49:01;27.40;99.90
25512;DHT22;13414;44.534;18.700;2023-09-08T10:51:29;27.40;99.90
25512;DHT22;13414;44.534;18.700;2023-09-08T10:53:57;27.40;99.90
25512;DHT22;13414;44.534;18.700;2023-09-08T10:56:29;27.30;99.90
25512;DHT22;13414;44.534;18.700;2023-09-08T10:59:13;27.40;99.90
25512;DHT22;13414;44.534;18.700;2023-09-08T11:01:42;27.40;99.90
25512;DHT22;13414;44.534;18.700;2023-09-08T11:04:11;27.40;99.90
25512;DHT22;13414;44.534;18.700;2023-09-08T11:06:39;27.40;99.90
25512;DHT22;13414;44.534;18.700;2023-09-08T11:09:07;27.40;99.90
25512;DHT22;13414;44.534;18.700;2023-09-08T11:11:36;27.50;99.90
25512;DHT22;13414;44.534;18.700;2023-09-08T11:14:04;27.60;99.90
25512;DHT22;13414;44.534;18.700;2023-09-08T11:16:31;27.60;99.90
25512;DHT22;13414;44.534;18.700;2023-09-08T11:19:01;27.70;99.90
25512;DHT22;13414;44.534;18.700;2023-09-08T11:21:30;27.70;99.90
25512;DHT22;13414;44.534;18.700;2023-09-08T11:24:01;27.70;99.90
25512;DHT22;13414;44.534;18.700;2023-09-08T11:26:33;27.60;99.90
25512;DHT22;13414;44.534;18.700;2023-09-08T11:29:01;27.70;99.90
25512;DHT22;13414;44.534;18.700;2023-09-08T11:31:28;27.70;99.90
25512;DHT22;13414;44.534;18.700;2023-09-08T11:33:56;27.80;99.90
25512;DHT22;13414;44.534;18.700;2023-09-08T11:36:26;27.70;99.90
25512;DHT22;13414;44.534;18.700;2023-09-08T11:38:54;27.50;99.90
25512;DHT22;13414;44.534;18.700;2023-09-08T11:41:24;27.70;99.90
25512;DHT22;13414;44.534;18.700;2023-09-08T11:43:52;27.60;99.90
25512;DHT22;13414;44.534;18.700;2023-09-08T11:46:20;27.60;99.90
25512;DHT22;13414;44.534;18.700;2023-09-08T11:48:48;27.70;99.90
25512;DHT22;13414;44.534;18.700;2023-09-08T11:51:16;27.70;99.90
25512;DHT22;13414;44.534;18.700;2023-09-08T11:53:45;27.70;99.90
25512;DHT22;13414;44.534;18.700;2023-09-08T11:56:13;27.70;99.90
25512;DHT22;13414;44.534;18.700;2023-09-08T11:58:42;27.70;99.90
25512;DHT22;13414;44.534;18.700;2023-09-08T12:01:12;27.70;99.90
25512;DHT22;13414;44.534;18.700;2023-09-08T12:03:51;27.50;99.90
25512;DHT22;13414;44.534;18.700;2023-09-08T12:06:19;27.50;99.90
25512;DHT22;13414;44.534;18.700;2023-09-08T12:08:49;27.50;99.90
25512;DHT22;13414;44.534;18.700;2023-09-08T12:11:17;27.80;99.90
25512;DHT22;13414;44.534;18.700;2023-09-08T12:13:44;27.80;99.90
25512;DHT22;13414;44.534;18.700;2023-09-08T12:16:18;28.00;99.90
25512;DHT22;13414;44.534;18.700;2023-09-08T12:18:57;28.20;99.90
25512;DHT22;13414;44.534;18.700;2023-09-08T12:21:29;28.20;99.90
25512;DHT22;13414;44.534;18.700;2023-09-08T12:24:00;28.40;99.90
25512;DHT22;13414;44.534;18.700;2023-09-08T12:26:29;28.40;99.90
25512;DHT22;13414;44.534;18.700;2023-09-08T12:28:58;28.50;99.90
25512;DHT22;13414;44.534;18.700;2023-09-08T12:31:28;28.70;99.90
25512;DHT22;13414;44.534;18.700;2023-09-08T12:33:56;28.80;99.90
25512;DHT22;13414;44.534;18.700;2023-09-08T12:36:24;28.90;99.90
25512;DHT22;13414;44.534;18.700;2023-09-08T12:38:51;28.80;99.90
25512;DHT22;13414;44.534;18.700;2023-09-08T12:41:21;28.50;99.90
25512;DHT22;13414;44.534;18.700;2023-09-08T12:43:50;28.30;99.90
25512;DHT22;13414;44.534;18.700;2023-09-08T12:46:20;28.20;99.90
25512;DHT22;13414;44.534;18.700;2023-09-08T12:48:48;28.00;99.90
25512;DHT22;13414;44.534;18.700;2023-09-08T12:51:18;28.20;99.90
25512;DHT22;13414;44.534;18.700;2023-09-08T12:53:46;28.20;99.90
25512;DHT22;13414;44.534;18.700;2023-09-08T12:56:13;28.20;99.90
25512;DHT22;13414;44.534;18.700;2023-09-08T12:58:42;28.30;99.90
25512;DHT22;13414;44.534;18.700;2023-09-08T13:01:10;28.10;99.90
25512;DHT22;13414;44.534;18.700;2023-09-08T13:03:38;28.10;99.90
25512;DHT22;13414;44.534;18.700;2023-09-08T13:06:05;28.20;99.90
25512;DHT22;13414;44.534;18.700;2023-09-08T13:08:33;28.00;99.90
25512;DHT22;13414;44.534;18.700;2023-09-08T13:11:00;27.80;99.90
25512;DHT22;13414;44.534;18.700;2023-09-08T13:13:29;27.60;99.90
25512;DHT22;13414;44.534;18.700;2023-09-08T13:15:58;27.40;99.90
25512;DHT22;13414;44.534;18.700;2023-09-08T13:18:26;27.20;99.90
25512;DHT22;13414;44.534;18.700;2023-09-08T13:20:54;27.20;99.90
25512;DHT22;13414;44.534;18.700;2023-09-08T13:23:21;27.20;99.90
25512;DHT22;13414;44.534;18.700;2023-09-08T13:25:49;27.30;99.90
25512;DHT22;13414;44.534;18.700;2023-09-08T13:28:17;27.50;99.90
25512;DHT22;13414;44.534;18.700;2023-09-08T13:30:44;27.50;99.90
25512;DHT22;13414;44.534;18.700;2023-09-08T13:33:14;27.40;99.90
25512;DHT22;13414;44.534;18.700;2023-09-08T13:35:41;27.30;99.90
25512;DHT22;13414;44.534;18.700;2023-09-08T13:38:09;27.30;99.90
25512;DHT22;13414;44.534;18.700;2023-09-08T13:40:36;27.30;99.90
25512;DHT22;13414;44.534;18.700;2023-09-08T13:43:04;27.40;99.90
25512;DHT22;13414;44.534;18.700;2023-09-08T13:45:32;27.40;99.90
25512;DHT22;13414;44.534;18.700;2023-09-08T13:48:00;27.60;99.90
25512;DHT22;13414;44.534;18.700;2023-09-08T13:50:29;27.60;99.90
25512;DHT22;13414;44.534;18.700;2023-09-08T13:52:57;27.60;99.90
25512;DHT22;13414;44.534;18.700;2023-09-08T13:55:25;27.60;99.90
25512;DHT22;13414;44.534;18.700;2023-09-08T13:57:52;27.60;99.90
25512;DHT22;13414;44.534;18.700;2023-09-08T14:00:20;27.60;99.90
25512;DHT22;13414;44.534;18.700;2023-09-08T14:02:48;27.60;99.90
25512;DHT22;13414;44.534;18.700;2023-09-08T14:05:16;27.40;99.90
25512;DHT22;13414;44.534;18.700;2023-09-08T14:07:49;27.30;99.90
25512;DHT22;13414;44.534;18.700;2023-09-08T14:10:16;27.20;99.90
25512;DHT22;13414;44.534;18.700;2023-09-08T14:12:44;27.20;99.90
25512;DHT22;13414;44.534;18.700;2023-09-08T14:15:11;27.20;99.90
25512;DHT22;13414;44.534;18.700;2023-09-08T14:17:42;27.20;99.90
25512;DHT22;13414;44.534;18.700;2023-09-08T14:20:11;27.30;99.90
25512;DHT22;13414;44.534;18.700;2023-09-08T14:22:38;27.20;99.90
25512;DHT22;13414;44.534;18.700;2023-09-08T14:25:09;27.20;99.90
25512;DHT22;13414;44.534;18.700;2023-09-08T14:27:37;27.30;99.90
25512;DHT22;13414;44.534;18.700;2023-09-08T14:30:06;27.30;99.90
25512;DHT22;13414;44.534;18.700;2023-09-08T14:32:34;27.30;99.90
25512;DHT22;13414;44.534;18.700;2023-09-08T14:35:21;27.20;99.90
25512;DHT22;13414;44.534;18.700;2023-09-08T14:48:52;27.50;99.90
25512;DHT22;13414;44.534;18.700;2023-09-08T14:51:58;27.50;99.90
25512;DHT22;13414;44.534;18.700;2023-09-08T14:54:26;27.40;99.90
25512;DHT22;13414;44.534;18.700;2023-09-08T15:00:26;27.30;99.90
25512;DHT22;13414;44.534;18.700;2023-09-08T15:02:53;27.20;99.90
25512;DHT22;13414;44.534;18.700;2023-09-08T15:05:22;27.10;99.90
25512;DHT22;13414;44.534;18.700;2023-09-08T15:07:49;27.00;99.90
25512;DHT22;13414;44.534;18.700;2023-09-08T15:10:17;26.90;99.90
25512;DHT22;13414;44.534;18.700;2023-09-08T15:12:45;26.80;99.90
25512;DHT22;13414;44.534;18.700;2023-09-08T15:15:14;26.90;99.90
25512;DHT22;13414;44.534;18.700;2023-09-08T15:17:43;26.90;99.90
25512;DHT22;13414;44.534;18.700;2023-09-08T15:20:11;26.90;99.90
25512;DHT22;13414;44.534;18.700;2023-09-08T15:22:39;27.00;99.90
25512;DHT22;13414;44.534;18.700;2023-09-08T15:25:09;27.00;99.90
25512;DHT22;13414;44.534;18.700;2023-09-08T15:27:36;27.00;99.90
25512;DHT22;13414;44.534;18.700;2023-09-08T15:30:05;26.90;99.90
25512;DHT22;13414;44.534;18.700;2023-09-08T15:32:32;26.90;99.90
25512;DHT22;13414;44.534;18.700;2023-09-08T15:35:01;26.90;99.90
25512;DHT22;13414;44.534;18.700;2023-09-08T15:37:29;26.90;99.90
25512;DHT22;13414;44.534;18.700;2023-09-08T15:39:57;27.00;99.90
25512;DHT22;13414;44.534;18.700;2023-09-08T15:42:26;26.90;99.90